^^
Your Local Weather - Clay, NY Station Historical Data
Daily Summary for January 11, 2017 Units:  Metric    English   Both
« Previous Day
Next Day »
Daily Weekly Monthly Yearly Custom
  High: Low: Average:
Temperature: 9.6 °C 1.3 °C 6.6 °C
Dew Point: 4.1 °C -5.1 °C -1.1 °C
Humidity: 81% 36% 60%
Wind Speed: 20.9km/h 0km/h 7.4km/h
Wind Gust: 53.1km/h - -
Wind- - SSW
Pressure: 1021.2 hPa 1006.3 hPa -
Precipitation: 12.45 mm    
Historical Graphs
 
 
Tabular Data for January 11, 2017
Time Temperature Dew Point Pressure Wind Wind Speed Wind Gust Humidity Rainfall Rate (Hourly) solar
00:02 1.3 °C -2.7 °C 1008.4 hPa Calm     75% 0 mm 0 W/m2
00:08 1.3 °C -2.6 °C 1008 hPa Calm     75% 0 mm 0 W/m2
00:14 1.4 °C -2.6 °C 1008 hPa Calm     75% 0 mm 0 W/m2
00:20 1.5 °C -2.4 °C 1008 hPa Calm     75% 0 mm 0 W/m2
00:26 1.5 °C -2.4 °C 1008 hPa Calm     75% 0 mm 0 W/m2
00:32 1.4 °C -2.3 °C 1008 hPa Calm     76% 0 mm 0 W/m2
00:38 1.6 °C -2.2 °C 1008 hPa Calm     76% 0 mm 0 W/m2
00:44 1.6 °C -2 °C 1008 hPa Calm     77% 0 mm 0 W/m2
00:50 1.7 °C -1.9 °C 1008 hPa Calm     77% 0 mm 0 W/m2
00:56 1.8 °C -1.9 °C 1008.4 hPa Calm     76% 0 mm 0 W/m2
01:02 1.9 °C -1.7 °C 1008 hPa SSE 1.6 km/h 8 km/h 77% 0 mm 0 W/m2
01:08 2 °C -1.6 °C 1008 hPa SSE 6.4 km/h 14.5 km/h 77% 0 mm 0 W/m2
01:14 2.1 °C -1.6 °C 1007.7 hPa South 8 km/h 11.3 km/h 77% 0 mm 0 W/m2
01:20 2.2 °C -1.2 °C 1007.7 hPa SSW 8 km/h 8 km/h 78% 0 mm 0 W/m2
01:26 2.1 °C -1.2 °C 1007.3 hPa SSE 6.4 km/h 9.7 km/h 79% 0 mm 0 W/m2
01:32 2.1 °C -0.8 °C 1006.3 hPa SSE 6.4 km/h 9.7 km/h 81% 0 mm 0 W/m2
01:38 2.3 °C -0.6 °C 1006.7 hPa SSE 4.8 km/h 9.7 km/h 81% 0 mm 0 W/m2
01:44 2.7 °C -0.2 °C 1006.7 hPa SE 8 km/h 9.7 km/h 81% 0 mm 0 W/m2
01:50 2.8 °C -0.1 °C 1006.7 hPa South 9.7 km/h 14.5 km/h 81% 1.02 mm 0 W/m2
01:56 3 °C -0.3 °C 1006.7 hPa South 9.7 km/h 14.5 km/h 79% 1.02 mm 0 W/m2
02:02 2.9 °C -0.3 °C 1006.7 hPa SSW 11.3 km/h 11.3 km/h 79% 1.52 mm 0 W/m2
02:08 3.6 °C 0.1 °C 1006.7 hPa ESE 11.3 km/h 16.1 km/h 78% 1.27 mm 0 W/m2
02:16 4 °C 0.2 °C 1007 hPa SSE 12.9 km/h 19.3 km/h 76% 2.29 mm 0 W/m2
02:22 4 °C -0.1 °C 1007 hPa SSW 14.5 km/h 16.1 km/h 75% 2.29 mm 0 W/m2
02:28 4.2 °C 0.1 °C 1007 hPa South 14.5 km/h 25.7 km/h 75% 1.78 mm 0 W/m2
02:34 4.2 °C 0.1 °C 1007.3 hPa SSW 14.5 km/h 19.3 km/h 75% 2.03 mm 0 W/m2
02:40 4.6 °C 0.4 °C 1006.7 hPa SSW 14.5 km/h 17.7 km/h 74% 2.03 mm 0 W/m2
02:46 4.9 °C 0.3 °C 1006.7 hPa South 16.1 km/h 25.7 km/h 72% 1.78 mm 0 W/m2
02:52 4.9 °C 0.3 °C 1007.3 hPa WSW 17.7 km/h 53.1 km/h 72% 2.29 mm 0 W/m2
02:58 4.9 °C 0.1 °C 1007.7 hPa South 19.3 km/h 53.1 km/h 71% 1.78 mm 0 W/m2
03:04 4.9 °C 0.1 °C 1007.3 hPa South 19.3 km/h 29 km/h 71% 3.3 mm 0 W/m2
03:10 4.8 °C 0 °C 1007.3 hPa SSE 16.1 km/h 16.1 km/h 71% 2.03 mm 0 W/m2
03:16 4.9 °C 0.1 °C 1007.7 hPa WSW 19.3 km/h 38.6 km/h 71% 2.29 mm 0 W/m2
03:22 4.7 °C 0.1 °C 1007.7 hPa SSW 19.3 km/h 30.6 km/h 72% 2.54 mm 0 W/m2
03:28 5.4 °C 0.3 °C 1008 hPa SW 17.7 km/h 30.6 km/h 70% 3.3 mm 0 W/m2
03:34 5.3 °C 0.2 °C 1008.4 hPa SW 19.3 km/h 33.8 km/h 70% 2.54 mm 0 W/m2
03:40 5.2 °C 0.1 °C 1008.4 hPa SSE 19.3 km/h 19.3 km/h 70% 3.3 mm 0 W/m2
03:46 5 °C 0 °C 1008.7 hPa SSW 17.7 km/h 19.3 km/h 70% 2.54 mm 0 W/m2
03:52 4.8 °C 0 °C 1009 hPa South 12.9 km/h 14.5 km/h 71% 3.05 mm 0 W/m2
03:58 4.8 °C 0.2 °C 1009.4 hPa SW 11.3 km/h 14.5 km/h 72% 2.54 mm 0 W/m2
04:04 5.1 °C 0.4 °C 1009.7 hPa WSW 9.7 km/h 11.3 km/h 72% 2.54 mm 0 W/m2
04:10 5.4 °C 0.6 °C 1009.7 hPa SW 9.7 km/h 9.7 km/h 71% 2.03 mm 0 W/m2
04:16 5.4 °C 0.6 °C 1010 hPa SW 8 km/h 11.3 km/h 71% 3.3 mm 0 W/m2
04:22 5.3 °C 0.5 °C 1010.4 hPa West 9.7 km/h 9.7 km/h 71% 2.54 mm 0 W/m2
04:28 5.3 °C 0.4 °C 1010.7 hPa SW 9.7 km/h 11.3 km/h 71% 2.03 mm 0 W/m2
04:34 5.3 °C 0.4 °C 1011.4 hPa WSW 8 km/h 9.7 km/h 71% 1.78 mm 0 W/m2
04:40 5.3 °C 0.7 °C 1011.7 hPa West 8 km/h 8 km/h 72% 2.54 mm 0 W/m2
04:46 5.3 °C 0.6 °C 1012.1 hPa WSW 9.7 km/h 12.9 km/h 72% 2.29 mm 0 W/m2
04:52 5.2 °C 0.6 °C 1012.1 hPa WSW 9.7 km/h 9.7 km/h 72% 3.56 mm 0 W/m2
04:58 5.1 °C 0.4 °C 1012.1 hPa West 8 km/h 9.7 km/h 72% 2.29 mm 0 W/m2
05:04 4.9 °C 0.5 °C 1012.4 hPa SW 6.4 km/h 9.7 km/h 73% 1.27 mm 0 W/m2
05:10 4.9 °C 0.7 °C 1012.4 hPa SW 6.4 km/h 9.7 km/h 74% 1.27 mm 0 W/m2
05:16 5 °C 0.7 °C 1012.4 hPa WSW 6.4 km/h 11.3 km/h 74% 1.27 mm 0 W/m2
05:22 5 °C 0.7 °C 1012.8 hPa SSW 8 km/h 8 km/h 74% 1.27 mm 0 W/m2
05:28 4.9 °C 0.7 °C 1013.1 hPa WSW 6.4 km/h 11.3 km/h 74% 1.27 mm 0 W/m2
05:34 4.9 °C 0.7 °C 1012.8 hPa SSW 6.4 km/h 8 km/h 74% 1.02 mm 0 W/m2
05:40 4.8 °C 0.7 °C 1013.1 hPa SW 4.8 km/h 4.8 km/h 75% 1.02 mm 0 W/m2
05:46 4.7 °C 0.6 °C 1013.4 hPa SSW 4.8 km/h 4.8 km/h 75% 1.02 mm 0 W/m2
05:52 4.6 °C 0.6 °C 1013.4 hPa SW 4.8 km/h 4.8 km/h 75% 1.02 mm 0 W/m2
05:58 4.6 °C 0.7 °C 1013.8 hPa West 4.8 km/h 6.4 km/h 76% 1.02 mm 0 W/m2
06:04 4.6 °C 0.7 °C 1014.1 hPa WSW 3.2 km/h 6.4 km/h 76% 0 mm 0 W/m2
06:10 4.4 °C 0.6 °C 1014.1 hPa West 1.6 km/h 1.6 km/h 76% 0 mm 0 W/m2
06:16 4.3 °C 0.6 °C 1014.1 hPa WSW 1.6 km/h 3.2 km/h 77% 0 mm 0 W/m2
06:22 4.1 °C 0.4 °C 1014.4 hPa WSW 1.6 km/h 1.6 km/h 77% 0 mm 0 W/m2
06:28 4 °C 0.3 °C 1014.4 hPa SW 1.6 km/h 1.6 km/h 77% 0 mm 0 W/m2
06:34 3.9 °C 0.4 °C 1014.4 hPa SW 1.6 km/h 6.4 km/h 78% 0 mm 0 W/m2
06:40 3.9 °C 0.4 °C 1014.4 hPa WSW 3.2 km/h 3.2 km/h 78% 0 mm 0 W/m2
06:46 4 °C 0.5 °C 1015.1 hPa SW 3.2 km/h 4.8 km/h 78% 0 mm 0 W/m2
06:52 4 °C 0.5 °C 1015.5 hPa WSW 1.6 km/h 6.4 km/h 78% 0 mm 0 W/m2
06:58 3.9 °C 0.4 °C 1015.8 hPa WSW 1.6 km/h 6.4 km/h 78% 0 mm 0 W/m2
07:04 3.9 °C 0.4 °C 1016.1 hPa West 3.2 km/h 4.8 km/h 78% 0 mm 0 W/m2
07:10 4 °C 0.3 °C 1016.1 hPa West 3.2 km/h 4.8 km/h 77% 0 mm 0 W/m2
07:16 4.2 °C 0.5 °C 1016.1 hPa WSW 4.8 km/h 4.8 km/h 77% 0 mm 0 W/m2
07:22 4.2 °C 0.3 °C 1016.1 hPa WSW 4.8 km/h 6.4 km/h 76% 0 mm 0 W/m2
07:28 4.2 °C 0.4 °C 1016.5 hPa WNW 4.8 km/h 8 km/h 76% 0 mm 0 W/m2
07:34 4.2 °C 0.3 °C 1016.5 hPa SW 4.8 km/h 8 km/h 76% 0 mm 5 W/m2
07:40 4.1 °C 0.2 °C 1016.8 hPa SW 3.2 km/h 3.2 km/h 76% 0 mm 7 W/m2
07:46 4.1 °C 0.3 °C 1017.2 hPa SW 4.8 km/h 4.8 km/h 76% 0 mm 9 W/m2
07:52 4.2 °C 0.3 °C 1017.2 hPa West 6.4 km/h 6.4 km/h 76% 0 mm 11 W/m2
07:58 4.3 °C 0.2 °C 1017.2 hPa SW 4.8 km/h 9.7 km/h 75% 0 mm 14 W/m2
08:04 4.3 °C 0.2 °C 1017.5 hPa West 3.2 km/h 4.8 km/h 75% 0 mm 16 W/m2
08:10 4.3 °C 0.3 °C 1018.2 hPa SW 3.2 km/h 4.8 km/h 75% 0 mm 19 W/m2
08:16 4.4 °C 0.4 °C 1018.2 hPa WSW 3.2 km/h 4.8 km/h 75% 0 mm 21 W/m2
08:22 4.5 °C 0.3 °C 1018.5 hPa West 3.2 km/h 3.2 km/h 74% 0 mm 23 W/m2
08:28 4.6 °C 0.2 °C 1018.5 hPa WSW 3.2 km/h 6.4 km/h 73% 0 mm 51 W/m2
08:34 4.7 °C 0.3 °C 1018.8 hPa SW 3.2 km/h 4.8 km/h 73% 0 mm 135 W/m2
08:40 4.9 °C 0.3 °C 1018.8 hPa West 1.6 km/h 1.6 km/h 72% 0 mm 156 W/m2
08:46 5.3 °C 0.2 °C 1019.2 hPa West 3.2 km/h 4.8 km/h 70% 0 mm 171 W/m2
08:52 5.6 °C 0.3 °C 1019.2 hPa WSW 3.2 km/h 4.8 km/h 69% 0 mm 192 W/m2
08:58 5.7 °C 0 °C 1019.2 hPa SW 1.6 km/h 8 km/h 67% 1.52 mm 202 W/m2
09:04 5.8 °C -0.5 °C 1019.2 hPa West 3.2 km/h 6.4 km/h 64% 1.27 mm 218 W/m2
09:10 6.1 °C -1.6 °C 1019.5 hPa West 6.4 km/h 6.4 km/h 58% 1.02 mm 230 W/m2
09:16 6.4 °C -1.9 °C 1019.9 hPa SW 6.4 km/h 14.5 km/h 55% 1.02 mm 244 W/m2
09:22 6.8 °C -2.4 °C 1020.2 hPa SSW 6.4 km/h 6.4 km/h 52% 1.52 mm 262 W/m2
09:28 6.9 °C -2.6 °C 1020.2 hPa SW 6.4 km/h 6.4 km/h 51% 1.27 mm 272 W/m2
09:34 7.1 °C -3.2 °C 1020.2 hPa WSW 6.4 km/h 12.9 km/h 48% 1.02 mm 294 W/m2
09:40 7.3 °C -2.7 °C 1020.5 hPa SW 4.8 km/h 4.8 km/h 49% 1.02 mm 297 W/m2
09:46 7.5 °C -2.8 °C 1020.5 hPa SW 4.8 km/h 14.5 km/h 48% 1.78 mm 309 W/m2
09:52 7.6 °C -2.5 °C 1020.9 hPa WSW 6.4 km/h 14.5 km/h 49% 1.27 mm 322 W/m2
09:58 7.5 °C -3.1 °C 1020.9 hPa WSW 8 km/h 14.5 km/h 47% 1.02 mm 334 W/m2
10:04 7.6 °C -3.3 °C 1020.9 hPa WSW 9.7 km/h 20.9 km/h 46% 1.02 mm 345 W/m2
10:10 7.6 °C -3.6 °C 1020.9 hPa WSW 11.3 km/h 11.3 km/h 45% 1.27 mm 353 W/m2
10:16 7.8 °C -3.1 °C 1020.9 hPa WSW 8 km/h 11.3 km/h 46% 1.27 mm 364 W/m2
10:22 8.1 °C -2.6 °C 1020.9 hPa WSW 4.8 km/h 4.8 km/h 47% 1.02 mm 374 W/m2
10:28 7.9 °C -3 °C 1021.2 hPa West 4.8 km/h 22.5 km/h 46% 1.02 mm 383 W/m2
10:34 7.8 °C -3.7 °C 1020.9 hPa SSW 8 km/h 8 km/h 44% 1.02 mm 392 W/m2
10:40 7.9 °C -4.2 °C 1020.9 hPa WSW 8 km/h 9.7 km/h 42% 1.02 mm 401 W/m2
10:46 7.9 °C -3.9 °C 1021.2 hPa WNW 6.4 km/h 11.3 km/h 43% 1.02 mm 415 W/m2
10:52 8.1 °C -4.1 °C 1021.2 hPa West 8 km/h 8 km/h 42% 1.02 mm 417 W/m2
10:58 8.2 °C -4.3 °C 1020.9 hPa West 8 km/h 17.7 km/h 41% 0 mm 425 W/m2
11:04 8.1 °C -4.8 °C 1021.2 hPa SSW 9.7 km/h 16.1 km/h 40% 0 mm 427 W/m2
11:10 8.2 °C -4.3 °C 1020.9 hPa SW 8 km/h 11.3 km/h 41% 0 mm 429 W/m2
11:16 8.3 °C -4.2 °C 1021.2 hPa West 8 km/h 11.3 km/h 41% 0 mm 441 W/m2
11:22 8.3 °C -4.5 °C 1020.9 hPa West 8 km/h 12.9 km/h 40% 0 mm 390 W/m2
11:28 8.3 °C -4.2 °C 1020.5 hPa WNW 8 km/h 12.9 km/h 41% 0 mm 98 W/m2
11:34 8.3 °C -4.2 °C 1020.5 hPa West 6.4 km/h 14.5 km/h 41% 0 mm 462 W/m2
11:40 8.6 °C -4.3 °C 1020.2 hPa SW 4.8 km/h 4.8 km/h 40% 0 mm 466 W/m2
11:46 8.8 °C -4.4 °C 1020.2 hPa West 3.2 km/h 9.7 km/h 39% 0 mm 452 W/m2
11:52 8.9 °C -4.3 °C 1020.2 hPa WSW 4.8 km/h 8 km/h 39% 0 mm 445 W/m2
11:58 8.7 °C -4.5 °C 1020.2 hPa WSW 6.4 km/h 8 km/h 39% 0 mm 364 W/m2
12:04 8.9 °C -4.3 °C 1019.9 hPa WSW 4.8 km/h 11.3 km/h 39% 0 mm 422 W/m2
12:10 8.7 °C -4.5 °C 1020.2 hPa SW 4.8 km/h 4.8 km/h 39% 0 mm 378 W/m2
12:16 8.8 °C -4.1 °C 1019.5 hPa WSW 4.8 km/h 12.9 km/h 40% 0 mm 341 W/m2
12:22 8.8 °C -4.1 °C 1019.2 hPa WSW 4.8 km/h 4.8 km/h 40% 0 mm 364 W/m2
12:28 8.8 °C -4.1 °C 1019.5 hPa West 4.8 km/h 11.3 km/h 40% 0 mm 396 W/m2
12:34 8.8 °C -4.1 °C 1019.5 hPa West 6.4 km/h 6.4 km/h 40% 0 mm 381 W/m2
12:40 8.9 °C -3.9 °C 1019.9 hPa West 4.8 km/h 4.8 km/h 40% 0 mm 253 W/m2
12:46 8.9 °C -4.3 °C 1019.9 hPa West 3.2 km/h 9.7 km/h 39% 0 mm 267 W/m2
12:54 8.6 °C -4.3 °C 1019.5 hPa SW 4.8 km/h 8 km/h 40% 0 mm 320 W/m2
13:00 8.8 °C -4.1 °C 1019.5 hPa SSW 3.2 km/h 4.8 km/h 40% 0 mm 290 W/m2
13:06 8.6 °C -4.3 °C 1019.2 hPa SW 4.8 km/h 8 km/h 40% 0 mm 248 W/m2
13:12 8.6 °C -4.6 °C 1019.2 hPa SSW 6.4 km/h 6.4 km/h 39% 0 mm 236 W/m2
13:18 8.6 °C -4.6 °C 1018.8 hPa SSE 3.2 km/h 6.4 km/h 39% 0 mm 230 W/m2
13:26 8.5 °C -4 °C 1018.5 hPa SW 4.8 km/h 4.8 km/h 41% 0 mm 336 W/m2
13:32 9 °C -3.9 °C 1018.8 hPa SSW 3.2 km/h 3.2 km/h 40% 0 mm 325 W/m2
13:38 9.1 °C -4.1 °C 1018.5 hPa SSW 1.6 km/h 4.8 km/h 39% 0 mm 329 W/m2
13:46 9.1 °C -4.1 °C 1018.8 hPa SE 3.2 km/h 6.4 km/h 39% 0 mm 371 W/m2
13:52 9.1 °C -4.6 °C 1018.5 hPa South 3.2 km/h 6.4 km/h 38% 0 mm 190 W/m2
13:58 9.1 °C -4.8 °C 1018.5 hPa SSE 4.8 km/h 8 km/h 37% 0 mm 301 W/m2
14:06 9.3 °C -5.1 °C 1018.5 hPa South 6.4 km/h 11.3 km/h 36% 0 mm 197 W/m2
14:12 9.4 °C -4.9 °C 1018.5 hPa South 6.4 km/h 6.4 km/h 36% 0 mm 279 W/m2
14:18 9.6 °C -4.8 °C 1018.5 hPa South 4.8 km/h 8 km/h 36% 0 mm 274 W/m2
14:26 9.4 °C -4.2 °C 1018.5 hPa South 8 km/h 12.9 km/h 38% 0 mm 241 W/m2
14:32 9.4 °C -3.8 °C 1018.5 hPa SE 8 km/h 8 km/h 39% 0 mm 302 W/m2
14:38 9.4 °C -3.5 °C 1018.5 hPa South 6.4 km/h 12.9 km/h 40% 0 mm 193 W/m2
14:44 9.6 °C -4.1 °C 1018.5 hPa SSE 8 km/h 16.1 km/h 38% 0 mm 155 W/m2
14:50 9.4 °C -3.9 °C 1018.5 hPa SE 9.7 km/h 9.7 km/h 39% 0 mm 135 W/m2
14:56 9.2 °C -3.4 °C 1018.5 hPa South 9.7 km/h 11.3 km/h 41% 0 mm 120 W/m2
15:02 8.9 °C -3 °C 1018.5 hPa SE 8 km/h 16.1 km/h 43% 0 mm 107 W/m2
15:08 8.9 °C -2.7 °C 1018.8 hPa SSE 8 km/h 16.1 km/h 44% 0 mm 97 W/m2
15:14 8.8 °C -2.4 °C 1018.5 hPa SSE 9.7 km/h 11.3 km/h 45% 0 mm 90 W/m2
15:20 8.8 °C -1.9 °C 1018.5 hPa SSE 9.7 km/h 9.7 km/h 47% 0 mm 88 W/m2
15:26 8.7 °C -1.7 °C 1018.5 hPa South 11.3 km/h 11.3 km/h 48% 0 mm 84 W/m2
15:32 8.6 °C -1.8 °C 1018.5 hPa SSE 9.7 km/h 9.7 km/h 48% 0 mm 70 W/m2
15:38 8.5 °C -1.6 °C 1018.5 hPa SSW 8 km/h 12.9 km/h 49% 0 mm 62 W/m2
15:44 8.4 °C -1.7 °C 1018.5 hPa East 8 km/h 16.1 km/h 49% 0 mm 54 W/m2
15:50 8.4 °C -1.7 °C 1018.2 hPa SSE 9.7 km/h 9.7 km/h 49% 0 mm 53 W/m2
15:56 8.3 °C -1.5 °C 1018.5 hPa SSE 8 km/h 9.7 km/h 50% 0 mm 46 W/m2
16:02 8.1 °C -1.5 °C 1018.2 hPa SE 6.4 km/h 8 km/h 51% 0 mm 33 W/m2
16:08 8.1 °C -1.5 °C 1017.8 hPa South 6.4 km/h 11.3 km/h 51% 0 mm 28 W/m2
16:14 7.9 °C -1.3 °C 1017.8 hPa SSE 6.4 km/h 8 km/h 52% 0 mm 21 W/m2
16:20 7.8 °C -1.5 °C 1017.5 hPa SE 4.8 km/h 4.8 km/h 52% 0 mm 16 W/m2
16:26 7.7 °C -1.3 °C 1017.5 hPa SSE 4.8 km/h 4.8 km/h 53% 0 mm 11 W/m2
16:32 7.4 °C -1.3 °C 1017.5 hPa SSE 3.2 km/h 6.4 km/h 54% 0 mm 7 W/m2
16:38 7.4 °C -1.3 °C 1017.2 hPa SSE 3.2 km/h 6.4 km/h 54% 0 mm 5 W/m2
16:44 7.1 °C -1.3 °C 1016.8 hPa Calm   1.6 km/h 55% 0 mm 0 W/m2
16:50 6.7 °C -1.5 °C 1016.8 hPa ENE 1.6 km/h 1.6 km/h 56% 0 mm 0 W/m2
16:56 6.8 °C -1.4 °C 1016.5 hPa SE 1.6 km/h 6.4 km/h 56% 0 mm 0 W/m2
17:02 7.1 °C -1.3 °C 1016.5 hPa SSE 4.8 km/h 8 km/h 55% 0 mm 0 W/m2
17:08 7.2 °C -1.6 °C 1017.2 hPa South 4.8 km/h 8 km/h 54% 0 mm 0 W/m2
17:14 7 °C -1.4 °C 1017.2 hPa South 1.6 km/h 3.2 km/h 55% 0 mm 0 W/m2
17:20 6.7 °C -1.4 °C 1017.2 hPa ESE 1.6 km/h 3.2 km/h 56% 0 mm 0 W/m2
17:26 6.6 °C -1.6 °C 1017.2 hPa ESE 1.6 km/h 3.2 km/h 56% 0 mm 0 W/m2
17:32 6.3 °C -1.6 °C 1017.5 hPa SSE 1.6 km/h 3.2 km/h 57% 0 mm 0 W/m2
17:38 6.7 °C -1.7 °C 1017.5 hPa SE 3.2 km/h 4.8 km/h 55% 0 mm 0 W/m2
17:44 7.1 °C -1.9 °C 1017.2 hPa SE 3.2 km/h 3.2 km/h 53% 0 mm 0 W/m2
17:50 7.3 °C -1.7 °C 1016.8 hPa SE 4.8 km/h 4.8 km/h 53% 0 mm 0 W/m2
17:56 7.4 °C -1.6 °C 1016.8 hPa SE 4.8 km/h 8 km/h 53% 0 mm 0 W/m2
18:02 6.8 °C -1.6 °C 1016.5 hPa SE 3.2 km/h 8 km/h 55% 0 mm 0 W/m2
18:08 7.1 °C -1.3 °C 1016.5 hPa South 3.2 km/h 8 km/h 55% 0 mm 0 W/m2
18:14 7.3 °C -1.1 °C 1016.5 hPa SE 4.8 km/h 11.3 km/h 55% 0 mm 0 W/m2
18:20 7.4 °C -1.1 °C 1016.5 hPa SSE 4.8 km/h 8 km/h 55% 0 mm 0 W/m2
18:26 7.3 °C -1.1 °C 1016.5 hPa SSE 3.2 km/h 8 km/h 55% 0 mm 0 W/m2
18:32 6.9 °C -1.2 °C 1016.1 hPa ENE 3.2 km/h 4.8 km/h 56% 0 mm 0 W/m2
18:38 6.8 °C -1.6 °C 1016.1 hPa SSE 3.2 km/h 4.8 km/h 55% 0 mm 0 W/m2
18:44 6.9 °C -1.2 °C 1016.1 hPa SE 3.2 km/h 3.2 km/h 56% 0 mm 0 W/m2
18:50 6.6 °C -1.3 °C 1016.5 hPa SE 1.6 km/h 1.6 km/h 57% 0 mm 0 W/m2
18:58 6.3 °C -1.1 °C 1015.8 hPa ESE 1.6 km/h 4.8 km/h 59% 0 mm 0 W/m2
19:04 6.6 °C -1.4 °C 1015.8 hPa SE 3.2 km/h 3.2 km/h 57% 0 mm 0 W/m2
19:10 6.6 °C -1.4 °C 1015.8 hPa South 3.2 km/h 3.2 km/h 57% 0 mm 0 W/m2
19:16 6.5 °C -1.2 °C 1015.5 hPa SSE 1.6 km/h 3.2 km/h 58% 0 mm 0 W/m2
19:22 6.3 °C -1.4 °C 1015.8 hPa Calm   3.2 km/h 58% 0 mm 0 W/m2
19:28 6.3 °C -1.3 °C 1015.8 hPa South 1.6 km/h 4.8 km/h 58% 0 mm 0 W/m2
19:34 7.7 °C -1.3 °C 1015.8 hPa SSW 6.4 km/h 9.7 km/h 53% 0 mm 0 W/m2
19:40 8.3 °C -1.3 °C 1015.5 hPa SSE 9.7 km/h 11.3 km/h 51% 0 mm 0 W/m2
19:46 8.4 °C -1.2 °C 1015.1 hPa SSE 9.7 km/h 12.9 km/h 51% 0 mm 0 W/m2
19:52 8.3 °C -0.9 °C 1015.1 hPa SSE 8 km/h 9.7 km/h 52% 0 mm 0 W/m2
19:58 8.2 °C -0.8 °C 1015.1 hPa South 6.4 km/h 9.7 km/h 53% 0 mm 0 W/m2
20:04 8.2 °C -0.8 °C 1015.1 hPa SE 6.4 km/h 9.7 km/h 53% 0 mm 0 W/m2
20:10 8 °C -1 °C 1015.1 hPa SSE 4.8 km/h 4.8 km/h 53% 0 mm 0 W/m2
20:16 8.1 °C -0.9 °C 1015.1 hPa WSW 4.8 km/h 4.8 km/h 53% 0 mm 0 W/m2
20:22 8.6 °C -1.6 °C 1014.8 hPa South 6.4 km/h 9.7 km/h 49% 0 mm 0 W/m2
20:28 9 °C -1.4 °C 1014.8 hPa South 11.3 km/h 20.9 km/h 48% 0 mm 0 W/m2
20:34 9 °C -1.4 °C 1014.8 hPa South 12.9 km/h 17.7 km/h 48% 0 mm 0 W/m2
20:40 8.8 °C -1.1 °C 1014.8 hPa South 8 km/h 24.1 km/h 50% 0 mm 0 W/m2
20:46 8.6 °C -0.7 °C 1014.8 hPa SSE 9.7 km/h 24.1 km/h 52% 0 mm 0 W/m2
20:52 8.6 °C -0.2 °C 1014.8 hPa South 9.7 km/h 16.1 km/h 54% 0 mm 0 W/m2
20:58 8.6 °C -0.2 °C 1014.8 hPa SSW 11.3 km/h 16.1 km/h 54% 0 mm 0 W/m2
21:04 8.8 °C -0.3 °C 1014.8 hPa South 11.3 km/h 11.3 km/h 53% 0 mm 0 W/m2
21:10 8.8 °C -0.1 °C 1014.8 hPa SW 11.3 km/h 11.3 km/h 54% 0 mm 0 W/m2
21:16 8.6 °C 0.1 °C 1014.8 hPa SW 11.3 km/h 17.7 km/h 55% 0 mm 0 W/m2
21:22 8.7 °C 0.1 °C 1014.8 hPa South 12.9 km/h 12.9 km/h 55% 0 mm 0 W/m2
21:28 8.7 °C 0.4 °C 1014.8 hPa South 12.9 km/h 12.9 km/h 56% 0 mm 0 W/m2
21:34 8.6 °C 0.3 °C 1014.8 hPa South 11.3 km/h 20.9 km/h 56% 0 mm 0 W/m2
21:40 8.6 °C 0.3 °C 1014.4 hPa SSE 11.3 km/h 16.1 km/h 56% 0 mm 0 W/m2
21:46 8.6 °C 0.5 °C 1014.1 hPa SSE 11.3 km/h 16.1 km/h 57% 0 mm 0 W/m2
21:52 8.5 °C 0.4 °C 1013.8 hPa SSE 11.3 km/h 17.7 km/h 57% 0 mm 0 W/m2
21:58 8.4 °C 0.7 °C 1013.4 hPa South 9.7 km/h 17.7 km/h 58% 0 mm 0 W/m2
22:04 8.6 °C 0.8 °C 1013.4 hPa SSE 9.7 km/h 9.7 km/h 58% 0 mm 0 W/m2
22:10 9 °C 1.2 °C 1013.1 hPa SSE 11.3 km/h 22.5 km/h 58% 0 mm 0 W/m2
22:16 9.2 °C 1.3 °C 1012.8 hPa SE 14.5 km/h 22.5 km/h 58% 0 mm 0 W/m2
22:22 9.2 °C 1.3 °C 1012.8 hPa SSE 12.9 km/h 16.1 km/h 58% 0 mm 0 W/m2
22:28 9.3 °C 1.7 °C 1012.4 hPa SSE 12.9 km/h 20.9 km/h 59% 0 mm 0 W/m2
22:34 9.4 °C 1.8 °C 1012.4 hPa SSE 14.5 km/h 19.3 km/h 59% 0 mm 0 W/m2
22:40 9.5 °C 2.1 °C 1012.8 hPa South 17.7 km/h 17.7 km/h 60% 0 mm 0 W/m2
22:46 9.4 °C 2 °C 1012.4 hPa SSE 19.3 km/h 22.5 km/h 60% 0 mm 0 W/m2
22:52 9.3 °C 2.1 °C 1012.1 hPa SE 17.7 km/h 22.5 km/h 61% 0 mm 0 W/m2
22:58 9.3 °C 2.4 °C 1012.1 hPa South 19.3 km/h 27.4 km/h 62% 0 mm 0 W/m2
23:04 9 °C 2.3 °C 1011.4 hPa South 19.3 km/h 22.5 km/h 63% 0 mm 0 W/m2
23:10 8.9 °C 2.5 °C 1011.4 hPa SSE 17.7 km/h 17.7 km/h 64% 0 mm 0 W/m2
23:16 8.8 °C 2.6 °C 1011.4 hPa SSE 19.3 km/h 19.3 km/h 65% 0 mm 0 W/m2
23:22 8.7 °C 3.2 °C 1011.4 hPa South 19.3 km/h 30.6 km/h 68% 0 mm 0 W/m2
23:28 8.7 °C 3.2 °C 1011.4 hPa SSW 20.9 km/h 30.6 km/h 68% 0 mm 0 W/m2
23:34 8.7 °C 3.3 °C 1011.1 hPa SE 19.3 km/h 35.4 km/h 69% 0 mm 0 W/m2
23:40 8.7 °C 3.6 °C 1011.4 hPa SSW 17.7 km/h 24.1 km/h 70% 0 mm 0 W/m2
23:46 8.8 °C 3.8 °C 1011.4 hPa SSW 17.7 km/h 27.4 km/h 71% 0 mm 0 W/m2
23:52 8.7 °C 3.9 °C 1011.4 hPa SSW 14.5 km/h 16.1 km/h 72% 0 mm 0 W/m2
23:58 8.8 °C 4.1 °C 1011.1 hPa SSE 16.1 km/h 24.1 km/h 72% 0 mm 0 W/m2
Country Meadow, Clay, NY, USA
Compliments of Weather Underground - 2 mb